Time;durP1;ratioP1;P1;durP2;ratioP2;P2;SDS_P1;SDS_P2;PMS_P1;PMS_P2;Temp;Humidity;BMP_temperature;BMP_pressure;BME280_temperature;BME280_humidity;BME280_pressure;Samples;Min_cycle;Max_cycle;Signal;HPM_P1;HPM_P2
2020/12/08 00:00:17;;;;;;;0.20;0.20;;;7.20;99.90;;;;;;5051291;28;20033;-92
2020/12/08 00:02:43;;;;;;;0.10;0.10;;;7.20;99.90;;;;;;5040056;28;20032;-91
2020/12/08 00:05:09;;;;;;;0.10;0.10;;;7.30;99.90;;;;;;5029709;28;20025;-91
2020/12/08 00:07:35;;;;;;;0.00;0.00;;;7.30;99.90;;;;;;5028545;28;20034;-91
2020/12/08 00:10:00;;;;;;;0.08;0.08;;;7.20;99.90;;;;;;5028408;28;20161;-90
2020/12/08 00:12:27;;;;;;;0.00;0.00;;;7.30;99.90;;;;;;5045778;28;20032;-91
2020/12/08 00:14:54;;;;;;;0.10;0.10;;;7.30;99.90;;;;;;5028280;28;20967;-91
2020/12/08 00:17:20;;;;;;;0.10;0.10;;;7.30;99.90;;;;;;5027831;28;20041;-91
2020/12/08 00:19:46;;;;;;;0.10;0.10;;;7.30;99.90;;;;;;5028760;28;20024;-91
2020/12/08 00:22:13;;;;;;;0.60;0.60;;;7.20;99.90;;;;;;5025396;28;20757;-91
2020/12/08 00:24:39;;;;;;;0.10;0.10;;;7.30;99.90;;;;;;5045967;28;20033;-91
2020/12/08 00:27:07;;;;;;;0.10;0.10;;;7.30;99.90;;;;;;5025372;28;20376;-91
2020/12/08 00:29:33;;;;;;;0.10;0.10;;;7.20;99.90;;;;;;5045031;28;20053;-91
2020/12/08 00:31:59;;;;;;;1.20;0.85;;;7.20;99.90;;;;;;5047196;28;20067;-91
2020/12/08 00:34:24;;;;;;;0.10;0.10;;;7.30;99.90;;;;;;5045905;28;20401;-91
2020/12/08 00:36:50;;;;;;;0.10;0.10;;;7.30;99.90;;;;;;5028702;28;20082;-92
2020/12/08 00:39:16;;;;;;;0.70;0.70;;;7.30;99.90;;;;;;5039152;28;20033;-91
2020/12/08 00:41:41;;;;;;;1.08;0.85;;;7.30;99.90;;;;;;5028241;28;20029;-91
2020/12/08 00:44:07;;;;;;;0.10;0.10;;;7.30;99.90;;;;;;5046102;28;20553;-92
2020/12/08 00:46:33;;;;;;;0.10;0.10;;;7.20;99.90;;;;;;5026051;28;20021;-91
2020/12/08 00:48:59;;;;;;;0.10;0.10;;;7.20;99.90;;;;;;5047161;28;20106;-91
2020/12/08 00:51:25;;;;;;;0.00;0.00;;;7.20;99.90;;;;;;5026665;28;20065;-91
2020/12/08 00:53:50;;;;;;;0.10;0.10;;;7.20;99.90;;;;;;5025187;28;20044;-91
2020/12/08 00:56:16;;;;;;;0.10;0.10;;;7.20;99.90;;;;;;5046981;28;20036;-92
2020/12/08 00:58:42;;;;;;;0.10;0.10;;;7.20;99.90;;;;;;5046523;28;20033;-92
2020/12/08 01:01:08;;;;;;;0.10;0.10;;;7.20;99.90;;;;;;5029339;28;20017;-92
2020/12/08 01:03:35;;;;;;;0.10;0.10;;;7.20;99.90;;;;;;5027610;28;20107;-91
2020/12/08 01:06:01;;;;;;;0.13;0.13;;;7.10;99.90;;;;;;5044688;28;20033;-91
2020/12/08 01:08:29;;;;;;;0.00;0.00;;;7.10;99.90;;;;;;5047445;28;20049;-91
2020/12/08 01:10:56;;;;;;;0.30;0.30;;;7.10;99.90;;;;;;5028556;28;20552;-91
2020/12/08 01:13:22;;;;;;;0.10;0.10;;;7.10;99.90;;;;;;5023077;28;20080;-91
2020/12/08 01:15:49;;;;;;;0.10;0.10;;;7.10;99.90;;;;;;5030358;28;20037;-91
2020/12/08 01:18:15;;;;;;;0.00;0.00;;;7.20;99.90;;;;;;5032708;28;20112;-91
2020/12/08 01:20:41;;;;;;;0.10;0.10;;;7.10;99.90;;;;;;5034151;28;20116;-91
2020/12/08 01:23:07;;;;;;;0.00;0.00;;;7.10;99.90;;;;;;5033370;28;20884;-92
2020/12/08 01:25:34;;;;;;;0.10;0.10;;;7.10;99.90;;;;;;5037737;28;20083;-93
2020/12/08 01:28:00;;;;;;;0.10;0.10;;;7.10;99.90;;;;;;5035049;28;20386;-92
2020/12/08 01:30:26;;;;;;;0.10;0.10;;;7.10;99.90;;;;;;5054168;28;20025;-93
2020/12/08 01:32:52;;;;;;;0.10;0.10;;;7.10;99.90;;;;;;5038005;28;20027;-92
2020/12/08 01:35:18;;;;;;;0.10;0.10;;;7.10;99.90;;;;;;5037810;28;20033;-92
2020/12/08 01:37:47;;;;;;;0.10;0.10;;;7.00;99.90;;;;;;5036700;28;20025;-91
2020/12/08 01:40:13;;;;;;;0.10;0.10;;;7.10;99.90;;;;;;5035123;28;20120;-91
2020/12/08 01:42:39;;;;;;;0.10;0.10;;;7.10;99.90;;;;;;5033761;28;20031;-92
2020/12/08 01:45:06;;;;;;;0.20;0.20;;;7.10;99.90;;;;;;5029756;28;20064;-93
2020/12/08 01:47:33;;;;;;;0.10;0.10;;;7.10;99.90;;;;;;5032418;28;20029;-92
2020/12/08 01:49:59;;;;;;;0.10;0.10;;;7.00;99.90;;;;;;5031374;28;20156;-91
2020/12/08 01:52:26;;;;;;;0.40;0.40;;;7.10;99.90;;;;;;5029016;28;20025;-92
2020/12/08 01:54:54;;;;;;;0.03;0.03;;;7.00;99.90;;;;;;5028589;28;20052;-91
2020/12/08 01:57:19;;;;;;;0.10;0.10;;;7.00;99.90;;;;;;5030249;28;20029;-92
2020/12/08 01:59:45;;;;;;;0.10;0.10;;;7.00;99.90;;;;;;5017358;28;20605;-91
2020/12/08 02:02:11;;;;;;;0.13;0.13;;;7.10;99.90;;;;;;5029641;28;20048;-90
2020/12/08 02:04:37;;;;;;;0.00;0.00;;;7.00;99.90;;;;;;5050731;28;20056;-90
2020/12/08 02:07:04;;;;;;;0.10;0.10;;;7.00;99.90;;;;;;5033718;28;20533;-90
2020/12/08 02:09:33;;;;;;;0.10;0.10;;;7.00;99.90;;;;;;5031903;28;20075;-91
2020/12/08 02:11:59;;;;;;;0.10;0.10;;;7.00;99.90;;;;;;5050823;28;20059;-91
2020/12/08 02:14:25;;;;;;;0.10;0.10;;;7.00;99.90;;;;;;5029434;28;20549;-91
2020/12/08 02:16:50;;;;;;;0.15;0.15;;;7.00;99.90;;;;;;5028104;28;20654;-92
2020/12/08 02:19:16;;;;;;;0.10;0.10;;;7.00;99.90;;;;;;5050564;28;20783;-92
2020/12/08 02:21:42;;;;;;;0.10;0.10;;;7.00;99.90;;;;;;5031747;28;20097;-91
2020/12/08 02:24:08;;;;;;;0.10;0.10;;;7.00;99.90;;;;;;5049377;28;20028;-91
2020/12/08 02:26:34;;;;;;;0.17;0.17;;;7.10;99.90;;;;;;5019215;28;20502;-91
2020/12/08 02:28:59;;;;;;;0.10;0.10;;;7.10;99.90;;;;;;5049739;28;20025;-91
2020/12/08 02:31:25;;;;;;;0.10;0.10;;;7.10;99.90;;;;;;5050702;28;20082;-91
2020/12/08 02:33:51;;;;;;;0.10;0.10;;;7.00;99.90;;;;;;5048692;28;20501;-91
2020/12/08 02:36:18;;;;;;;0.10;0.10;;;7.10;99.90;;;;;;5031363;28;20037;-91
2020/12/08 02:38:43;;;;;;;0.10;0.10;;;7.10;99.90;;;;;;5029626;28;20021;-91
2020/12/08 02:41:09;;;;;;;0.10;0.10;;;7.10;99.90;;;;;;5031463;28;20029;-92
2020/12/08 02:43:35;;;;;;;0.10;0.10;;;7.10;99.90;;;;;;5030831;28;20021;-91
2020/12/08 02:46:01;;;;;;;0.10;0.10;;;7.20;99.90;;;;;;5048414;28;20613;-90
2020/12/08 02:48:27;;;;;;;0.17;0.17;;;7.10;99.90;;;;;;5031176;28;20020;-91
2020/12/08 02:50:53;;;;;;;0.20;0.20;;;7.20;99.90;;;;;;5031628;28;20598;-92
2020/12/08 02:53:19;;;;;;;0.10;0.10;;;7.20;99.90;;;;;;5031747;28;20049;-92
2020/12/08 02:55:46;;;;;;;0.10;0.10;;;7.20;99.90;;;;;;5050331;28;20029;-92
2020/12/08 02:58:12;;;;;;;0.10;0.10;;;7.30;99.90;;;;;;5032114;28;20284;-92
2020/12/08 03:00:38;;;;;;;0.10;0.10;;;7.20;99.90;;;;;;5050534;28;20043;-92
2020/12/08 03:03:03;;;;;;;0.10;0.10;;;7.30;99.90;;;;;;5032212;28;20033;-91
2020/12/08 03:05:29;;;;;;;0.10;0.10;;;7.30;99.90;;;;;;5049761;28;20017;-91
2020/12/08 03:07:55;;;;;;;0.10;0.10;;;7.30;99.90;;;;;;5026940;28;20060;-90
2020/12/08 03:10:23;;;;;;;0.15;0.15;;;7.30;99.90;;;;;;5026897;28;20025;-90
2020/12/08 03:12:49;;;;;;;0.10;0.10;;;7.30;99.90;;;;;;5026279;28;20562;-92
2020/12/08 03:15:15;;;;;;;0.10;0.10;;;7.30;99.90;;;;;;5032188;28;20120;-91
2020/12/08 03:17:40;;;;;;;0.10;0.10;;;7.30;99.90;;;;;;5049073;28;20047;-91
2020/12/08 03:20:06;;;;;;;0.10;0.10;;;7.30;99.90;;;;;;5030010;28;20022;-91
2020/12/08 03:22:32;;;;;;;2.70;1.85;;;7.30;99.90;;;;;;5048974;28;20393;-90
2020/12/08 03:24:58;;;;;;;0.10;0.10;;;7.30;99.90;;;;;;5035520;28;20509;-91
2020/12/08 03:27:24;;;;;;;0.10;0.10;;;7.30;99.90;;;;;;5033225;28;20036;-90
2020/12/08 03:29:49;;;;;;;0.10;0.10;;;7.30;99.90;;;;;;5041337;28;20055;-91
2020/12/08 03:32:15;;;;;;;0.10;0.10;;;7.40;99.90;;;;;;5032491;28;20087;-90
2020/12/08 03:34:42;;;;;;;0.15;0.15;;;7.40;99.90;;;;;;5023142;28;20029;-91
2020/12/08 03:37:07;;;;;;;0.10;0.10;;;7.40;99.90;;;;;;5036173;28;20033;-91
2020/12/08 03:39:33;;;;;;;0.10;0.10;;;7.40;99.90;;;;;;5020091;28;20039;-91
2020/12/08 03:42:03;;;;;;;0.10;0.10;;;7.40;99.90;;;;;;5020265;28;20033;-91
2020/12/08 03:44:29;;;;;;;0.10;0.10;;;7.30;99.90;;;;;;5028605;28;20557;-91
2020/12/08 03:46:56;;;;;;;0.10;0.10;;;7.30;99.90;;;;;;5032393;28;20025;-92
2020/12/08 03:49:26;;;;;;;0.10;0.10;;;7.40;99.90;;;;;;5031605;28;20029;-93
2020/12/08 03:51:53;;;;;;;0.00;0.00;;;7.40;99.90;;;;;;5027239;28;20025;-92
2020/12/08 03:54:19;;;;;;;0.20;0.20;;;7.40;99.90;;;;;;5019264;28;20028;-92
2020/12/08 03:56:46;;;;;;;0.00;0.00;;;7.40;99.90;;;;;;5028061;28;20033;-90
2020/12/08 03:59:17;;;;;;;0.10;0.10;;;7.40;99.90;;;;;;5046108;28;20021;-92
2020/12/08 04:01:47;;;;;;;0.10;0.10;;;7.30;99.90;;;;;;5031273;28;20741;-93
2020/12/08 04:04:14;;;;;;;0.47;0.47;;;7.40;99.90;;;;;;5029511;28;20490;-92
2020/12/08 04:06:40;;;;;;;0.10;0.10;;;7.50;99.90;;;;;;5052639;28;20021;-90
2020/12/08 04:09:06;;;;;;;0.10;0.10;;;7.50;99.90;;;;;;5028564;28;20029;-91
2020/12/08 04:11:32;;;;;;;1.55;0.47;;;7.40;99.90;;;;;;5024962;28;20471;-91
2020/12/08 04:14:03;;;;;;;0.10;0.10;;;7.50;99.90;;;;;;5024226;28;20050;-89
2020/12/08 04:16:30;;;;;;;0.73;0.73;;;7.30;99.90;;;;;;5043415;28;20100;-91
2020/12/08 04:18:56;;;;;;;0.20;0.20;;;7.40;99.90;;;;;;5041983;28;20043;-91
2020/12/08 04:21:23;;;;;;;0.40;0.40;;;7.40;99.90;;;;;;5047060;28;20029;-91
2020/12/08 04:23:50;;;;;;;0.10;0.10;;;7.40;99.90;;;;;;5024948;28;20036;-90
2020/12/08 04:26:17;;;;;;;0.10;0.10;;;7.50;99.90;;;;;;5022379;28;20045;-90
2020/12/08 04:28:45;;;;;;;0.10;0.10;;;7.40;99.90;;;;;;5018205;28;20064;-89
2020/12/08 04:31:17;;;;;;;0.00;0.00;;;7.30;99.90;;;;;;5032237;28;20024;-93
2020/12/08 04:33:43;;;;;;;0.10;0.10;;;7.30;99.90;;;;;;5044696;28;20036;-91
2020/12/08 04:36:11;;;;;;;0.10;0.10;;;7.30;99.90;;;;;;5031815;28;20026;-90
2020/12/08 04:38:37;;;;;;;0.10;0.10;;;7.40;99.90;;;;;;5013456;28;20037;-90
2020/12/08 04:41:03;;;;;;;0.10;0.10;;;7.40;99.90;;;;;;5033493;28;20087;-91
2020/12/08 04:43:30;;;;;;;0.10;0.10;;;7.40;99.90;;;;;;5040640;28;20029;-91
2020/12/08 04:45:55;;;;;;;0.10;0.10;;;7.40;99.90;;;;;;5033582;28;20037;-91
2020/12/08 04:48:22;;;;;;;0.10;0.10;;;7.40;99.90;;;;;;5029220;28;20033;-90
2020/12/08 04:50:50;;;;;;;0.00;0.00;;;7.40;99.90;;;;;;5025897;28;20030;-91
2020/12/08 04:53:17;;;;;;;0.10;0.10;;;7.30;99.90;;;;;;5029492;28;20486;-91
2020/12/08 04:55:43;;;;;;;0.10;0.10;;;7.40;99.90;;;;;;5027766;28;20299;-91
2020/12/08 04:58:09;;;;;;;0.10;0.10;;;7.40;99.90;;;;;;5032403;28;20029;-90
2020/12/08 05:00:41;;;;;;;0.00;0.00;;;7.40;99.90;;;;;;5032327;28;20041;-90
2020/12/08 05:03:08;;;;;;;0.10;0.10;;;7.50;99.90;;;;;;5036872;28;20490;-90
2020/12/08 05:05:41;;;;;;;0.10;0.10;;;7.40;99.90;;;;;;5026516;28;20063;-90
2020/12/08 05:08:12;;;;;;;0.05;0.05;;;7.50;99.90;;;;;;5034156;28;20021;-91
2020/12/08 05:10:39;;;;;;;0.10;0.10;;;7.40;99.90;;;;;;5033676;28;20029;-91
2020/12/08 05:13:21;;;;;;;0.10;0.10;;;7.40;99.90;;;;;;5033826;28;20029;-91
2020/12/08 05:16:07;;;;;;;0.10;0.10;;;7.40;99.90;;;;;;5032210;28;20065;-91
2020/12/08 05:18:34;;;;;;;0.10;0.10;;;7.40;99.90;;;;;;5015817;28;20036;-91
2020/12/08 05:21:10;;;;;;;0.10;0.10;;;7.40;99.90;;;;;;5032549;28;20036;-91
2020/12/08 05:23:43;;;;;;;0.10;0.10;;;7.40;99.90;;;;;;5029746;28;20545;-92
2020/12/08 05:26:10;;;;;;;0.10;0.10;;;7.40;99.90;;;;;;5033349;28;20166;-91
2020/12/08 05:28:40;;;;;;;;;;;7.50;99.90;;;;;;5032310;28;20108;-92
2020/12/08 05:31:07;;;;;;;0.10;0.10;;;7.40;99.90;;;;;;5026314;28;20386;-91
2020/12/08 05:33:33;;;;;;;0.10;0.10;;;7.40;99.90;;;;;;5031706;28;20018;-90
2020/12/08 05:36:00;;;;;;;0.93;0.90;;;7.40;99.90;;;;;;5028427;28;20057;-91
2020/12/08 05:38:33;;;;;;;0.10;0.10;;;7.40;99.90;;;;;;5032794;28;20498;-91
2020/12/08 05:41:04;;;;;;;0.57;0.57;;;7.40;99.90;;;;;;5050293;28;20969;-90
2020/12/08 05:43:46;;;;;;;0.10;0.10;;;7.40;99.90;;;;;;5024487;28;20034;-92
2020/12/08 05:46:11;;;;;;;0.10;0.10;;;7.40;99.90;;;;;;5014045;28;20443;-90
2020/12/08 05:48:37;;;;;;;0.47;0.47;;;7.40;99.90;;;;;;5027955;28;20033;-89
2020/12/08 05:51:09;;;;;;;0.10;0.10;;;7.50;99.90;;;;;;5029512;28;20025;-93
2020/12/08 05:53:35;;;;;;;0.10;0.10;;;7.50;99.90;;;;;;5034201;28;20022;-88
2020/12/08 05:56:10;;;;;;;0.55;0.55;;;7.50;99.90;;;;;;5024771;28;20036;-91
2020/12/08 05:58:36;;;;;;;0.10;0.10;;;7.50;99.90;;;;;;5019396;28;20029;-91
2020/12/08 06:01:06;;;;;;;0.10;0.10;;;7.40;99.90;;;;;;5015468;28;20037;-90
2020/12/08 06:03:34;;;;;;;0.10;0.10;;;7.40;99.90;;;;;;5024235;28;20032;-89
2020/12/08 06:06:10;;;;;;;0.10;0.10;;;7.40;99.90;;;;;;5034956;28;20036;-92
2020/12/08 06:08:46;;;;;;;0.08;0.08;;;7.40;99.90;;;;;;5023790;28;20033;-90
2020/12/08 06:11:12;;;;;;;0.10;0.10;;;7.40;99.90;;;;;;5025288;28;20068;-90
2020/12/08 06:13:46;;;;;;;0.10;0.10;;;7.40;99.90;;;;;;5020954;28;20112;-91
2020/12/08 06:16:20;;;;;;;0.10;0.10;;;7.30;99.90;;;;;;5025054;28;20104;-90
2020/12/08 06:18:47;;;;;;;0.10;0.10;;;7.40;99.90;;;;;;5039340;28;20092;-89
2020/12/08 06:21:17;;;;;;;;;;;7.30;99.90;;;;;;5035277;28;20058;-91
2020/12/08 06:24:12;;;;;;;0.10;0.10;;;7.30;99.90;;;;;;5018497;28;19955;-89
2020/12/08 06:26:40;;;;;;;0.10;0.10;;;7.30;99.90;;;;;;5011286;28;20053;-93
2020/12/08 06:29:08;;;;;;;0.10;0.10;;;7.30;99.90;;;;;;5026312;28;20076;-90
2020/12/08 06:31:44;;;;;;;0.10;0.10;;;7.30;99.90;;;;;;5028577;28;20032;-91
2020/12/08 06:34:19;;;;;;;0.10;0.10;;;7.20;99.90;;;;;;5025269;28;20033;-91
2020/12/08 06:36:45;;;;;;;0.22;0.22;;;7.20;99.90;;;;;;5021911;28;20414;-90
2020/12/08 06:39:12;;;;;;;0.00;0.00;;;7.20;99.90;;;;;;5044882;28;20037;-90
2020/12/08 06:41:41;;;;;;;0.10;0.10;;;7.30;99.90;;;;;;5024307;28;20525;-90
2020/12/08 06:44:13;;;;;;;0.10;0.10;;;7.30;99.90;;;;;;5025018;28;20033;-93
2020/12/08 06:46:49;;;;;;;0.10;0.10;;;7.30;99.90;;;;;;5032856;28;20028;-90
2020/12/08 06:49:15;;;;;;;0.10;0.10;;;7.20;99.90;;;;;;5046396;28;20028;-88
2020/12/08 06:51:41;;;;;;;0.10;0.10;;;7.10;99.90;;;;;;5034570;28;20028;-96
2020/12/08 06:54:14;;;;;;;0.10;0.10;;;7.20;99.90;;;;;;5037178;28;20108;-92
2020/12/08 06:56:40;;;;;;;0.10;0.10;;;7.20;99.90;;;;;;5038341;28;20071;-95
2020/12/08 06:59:06;;;;;;;0.10;0.10;;;7.20;99.90;;;;;;5038133;28;20024;-95
2020/12/08 07:01:32;;;;;;;0.10;0.10;;;7.10;99.90;;;;;;5038084;28;20175;-95
2020/12/08 07:03:58;;;;;;;0.10;0.10;;;7.20;99.90;;;;;;5037659;28;20505;-94
2020/12/08 07:06:26;;;;;;;0.10;0.10;;;7.10;99.90;;;;;;5038050;28;20036;-95
2020/12/08 07:08:52;;;;;;;0.10;0.10;;;7.00;99.90;;;;;;5037953;28;20017;-95
2020/12/08 07:11:23;;;;;;;0.10;0.10;;;6.90;99.90;;;;;;5037633;28;20043;-96
2020/12/08 07:14:02;;;;;;;0.10;0.10;;;7.00;99.90;;;;;;5037076;28;20512;-96
2020/12/08 07:16:29;;;;;;;0.10;0.10;;;7.10;99.90;;;;;;5037659;28;20506;-96
2020/12/08 07:18:57;;;;;;;0.10;0.10;;;7.00;99.90;;;;;;5038210;28;20112;-96
2020/12/08 07:21:24;;;;;;;0.10;0.10;;;6.90;99.90;;;;;;5037596;28;20040;-96
2020/12/08 07:23:54;;;;;;;0.10;0.10;;;6.90;99.90;;;;;;5037643;28;20465;-95
2020/12/08 07:26:25;;;;;;;0.10;0.10;;;7.00;99.90;;;;;;5038191;28;20060;-96
2020/12/08 07:28:52;;;;;;;0.10;0.10;;;7.10;99.90;;;;;;5037649;28;20021;-95
2020/12/08 07:31:21;;;;;;;0.10;0.10;;;7.20;99.90;;;;;;5037823;28;20025;-96
2020/12/08 07:33:47;;;;;;;0.10;0.10;;;7.20;99.90;;;;;;5036839;28;20029;-94
2020/12/08 07:36:28;;;;;;;0.10;0.10;;;7.20;99.90;;;;;;5036276;28;20053;-93
2020/12/08 07:38:55;;;;;;;0.10;0.10;;;7.10;99.90;;;;;;5036569;28;20040;-94
2020/12/08 07:41:22;;;;;;;0.10;0.10;;;7.10;99.90;;;;;;5035703;28;20494;-94
2020/12/08 07:43:49;;;;;;;0.10;0.10;;;7.10;99.90;;;;;;5033616;28;20030;-95
2020/12/08 07:46:29;;;;;;;0.10;0.10;;;7.10;99.90;;;;;;5033454;28;20084;-94
2020/12/08 07:49:07;;;;;;;0.10;0.10;;;7.20;99.90;;;;;;5033845;28;20292;-95
2020/12/08 07:51:35;;;;;;;0.10;0.10;;;7.20;99.90;;;;;;5033557;28;20028;-96
2020/12/08 07:54:02;;;;;;;0.05;0.05;;;7.30;99.90;;;;;;5033725;28;20060;-95
2020/12/08 07:56:29;;;;;;;0.00;0.00;;;7.30;99.90;;;;;;5032352;28;20133;-92
2020/12/08 07:58:56;;;;;;;0.00;0.00;;;7.30;99.90;;;;;;5031317;28;20498;-91
2020/12/08 08:01:22;;;;;;;0.20;0.20;;;7.30;99.90;;;;;;5029424;28;20055;-90
2020/12/08 08:03:49;;;;;;;0.10;0.10;;;7.30;99.90;;;;;;5030173;28;20029;-92
2020/12/08 08:06:18;;;;;;;0.98;0.77;;;7.30;99.90;;;;;;5044512;28;20071;-91
2020/12/08 08:08:45;;;;;;;0.10;0.10;;;7.40;99.90;;;;;;5031913;28;20033;-91
2020/12/08 08:11:11;;;;;;;0.00;0.00;;;7.40;99.90;;;;;;5032264;28;20050;-91
2020/12/08 08:13:37;;;;;;;0.10;0.10;;;7.30;99.90;;;;;;5031781;28;20025;-90
2020/12/08 08:16:02;;;;;;;0.10;0.10;;;7.30;99.90;;;;;;5025780;28;20558;-92
2020/12/08 08:18:31;;;;;;;0.10;0.10;;;7.40;99.90;;;;;;5029923;28;20449;-93
2020/12/08 08:20:59;;;;;;;0.10;0.10;;;7.40;99.90;;;;;;5021016;28;20032;-93
2020/12/08 08:23:26;;;;;;;0.10;0.10;;;7.40;99.90;;;;;;5030472;28;20037;-91
2020/12/08 08:25:51;;;;;;;0.10;0.10;;;7.50;99.90;;;;;;5017627;28;20025;-90
2020/12/08 08:28:19;;;;;;;0.10;0.10;;;7.50;99.90;;;;;;5030484;28;20116;-90
2020/12/08 08:30:45;;;;;;;0.10;0.10;;;7.50;99.90;;;;;;5030199;28;20025;-90
2020/12/08 08:33:10;;;;;;;0.00;0.00;;;7.60;99.90;;;;;;5030669;28;20111;-90
2020/12/08 08:35:36;;;;;;;0.22;0.22;;;7.80;99.90;;;;;;5048207;28;20049;-90
2020/12/08 08:38:02;;;;;;;0.10;0.10;;;7.80;99.90;;;;;;5030558;28;20025;-90
2020/12/08 08:40:28;;;;;;;0.10;0.10;;;7.80;99.90;;;;;;5046468;28;20029;-90
2020/12/08 08:42:55;;;;;;;0.10;0.10;;;7.80;99.90;;;;;;5048291;28;20086;-90
2020/12/08 08:45:21;;;;;;;0.10;0.10;;;7.60;99.90;;;;;;5032397;28;20498;-90
2020/12/08 08:47:48;;;;;;;0.28;0.28;;;7.70;99.90;;;;;;5029503;28;20036;-90
2020/12/08 08:50:14;;;;;;;0.10;0.10;;;7.80;99.90;;;;;;5030666;28;20569;-91
2020/12/08 08:52:39;;;;;;;0.10;0.10;;;7.90;99.90;;;;;;5015963;28;20112;-90
2020/12/08 08:55:05;;;;;;;5.38;0.65;;;7.80;99.90;;;;;;5048115;28;20052;-91
2020/12/08 08:57:31;;;;;;;0.20;0.20;;;7.80;99.90;;;;;;5030263;28;20029;-92
2020/12/08 08:59:57;;;;;;;1.25;1.15;;;7.90;99.90;;;;;;5031607;28;20099;-93
2020/12/08 09:02:22;;;;;;;0.10;0.10;;;7.90;99.90;;;;;;5031537;28;20033;-93
2020/12/08 09:04:48;;;;;;;0.20;0.20;;;7.80;99.90;;;;;;5025286;28;20040;-92
2020/12/08 09:07:14;;;;;;;0.35;0.35;;;7.80;99.90;;;;;;5022866;28;20063;-92
2020/12/08 09:09:39;;;;;;;0.10;0.10;;;7.80;99.90;;;;;;5030064;28;20025;-91
2020/12/08 09:12:05;;;;;;;0.10;0.10;;;7.90;99.90;;;;;;5030987;28;20025;-92
2020/12/08 09:14:32;;;;;;;0.10;0.10;;;7.80;99.90;;;;;;5016898;28;20057;-92
2020/12/08 09:16:58;;;;;;;0.10;0.10;;;7.90;99.90;;;;;;5026660;28;20041;-92
2020/12/08 09:19:24;;;;;;;0.10;0.10;;;7.80;99.90;;;;;;5011050;28;20036;-92
2020/12/08 09:21:53;;;;;;;0.10;0.10;;;7.80;99.90;;;;;;5023381;28;20018;-92
2020/12/08 09:24:19;;;;;;;0.10;0.10;;;7.80;99.90;;;;;;5019341;28;20483;-92
2020/12/08 09:26:45;;;;;;;0.10;0.10;;;7.70;99.90;;;;;;5030282;28;20025;-93
2020/12/08 09:29:10;;;;;;;0.10;0.10;;;7.60;99.90;;;;;;5013437;28;20483;-91
2020/12/08 09:31:36;;;;;;;0.10;0.10;;;7.60;99.90;;;;;;5018571;28;20030;-92
2020/12/08 09:34:02;;;;;;;0.10;0.10;;;7.70;99.90;;;;;;5024216;28;20076;-92
2020/12/08 09:36:29;;;;;;;0.08;0.08;;;7.70;99.90;;;;;;5022461;28;20494;-92
2020/12/08 09:38:54;;;;;;;0.10;0.10;;;7.70;99.90;;;;;;5033875;28;20090;-91
2020/12/08 09:41:20;;;;;;;0.00;0.00;;;7.60;99.90;;;;;;5032649;28;20127;-91
2020/12/08 09:43:46;;;;;;;0.30;0.30;;;7.60;99.90;;;;;;5019464;28;20032;-91
2020/12/08 09:46:12;;;;;;;0.10;0.10;;;7.60;99.90;;;;;;5019932;28;20029;-91
2020/12/08 09:48:38;;;;;;;0.10;0.10;;;7.70;99.90;;;;;;5033810;28;20056;-91
2020/12/08 09:51:04;;;;;;;0.10;0.10;;;7.70;99.90;;;;;;5015171;28;20057;-91
2020/12/08 09:53:30;;;;;;;0.10;0.10;;;7.70;99.90;;;;;;5024575;28;20310;-92
2020/12/08 09:55:55;;;;;;;0.10;0.10;;;7.60;99.90;;;;;;5031059;28;20029;-91
2020/12/08 09:58:21;;;;;;;0.70;0.40;;;7.60;99.90;;;;;;5022086;28;20043;-91
2020/12/08 10:00:47;;;;;;;0.10;0.10;;;7.60;99.90;;;;;;5033226;28;20569;-92
2020/12/08 10:03:13;;;;;;;0.10;0.10;;;7.60;99.90;;;;;;5020029;28;20513;-92
2020/12/08 10:05:39;;;;;;;0.10;0.10;;;7.50;99.90;;;;;;5021924;28;20407;-91
2020/12/08 10:08:04;;;;;;;0.03;0.03;;;7.50;99.90;;;;;;5031464;28;20112;-91
2020/12/08 10:10:30;;;;;;;0.10;0.10;;;7.50;99.90;;;;;;5017806;28;20025;-91
2020/12/08 10:12:56;;;;;;;0.10;0.10;;;7.60;99.90;;;;;;5039049;28;20059;-91
2020/12/08 10:15:22;;;;;;;0.10;0.10;;;7.60;99.90;;;;;;5025559;28;20031;-91
2020/12/08 10:17:48;;;;;;;0.00;0.00;;;7.50;99.90;;;;;;5033165;28;20033;-91
2020/12/08 10:20:14;;;;;;;0.10;0.10;;;7.50;99.90;;;;;;5033032;28;20044;-90
2020/12/08 10:22:39;;;;;;;0.10;0.10;;;7.20;99.90;;;;;;5033043;28;20397;-91
2020/12/08 10:25:05;;;;;;;0.10;0.10;;;7.20;99.90;;;;;;5050692;28;20033;-91
2020/12/08 10:27:31;;;;;;;0.10;0.10;;;7.00;99.90;;;;;;5045963;28;20608;-91
2020/12/08 10:29:56;;;;;;;2.53;0.47;;;6.90;99.90;;;;;;5045524;28;20032;-91
2020/12/08 10:32:24;;;;;;;0.30;0.30;;;6.80;99.90;;;;;;5034267;28;20017;-91
2020/12/08 10:34:50;;;;;;;0.10;0.10;;;6.80;99.90;;;;;;5032710;28;20028;-90
2020/12/08 10:37:17;;;;;;;0.10;0.10;;;6.90;99.90;;;;;;5032565;28;20402;-91
2020/12/08 10:39:43;;;;;;;0.10;0.10;;;6.80;99.90;;;;;;5032626;28;20086;-91
2020/12/08 10:42:09;;;;;;;0.10;0.10;;;6.80;99.90;;;;;;5032167;28;20033;-91
2020/12/08 10:44:35;;;;;;;0.10;0.10;;;6.70;99.90;;;;;;5033139;28;20834;-91
2020/12/08 10:47:00;;;;;;;0.08;0.08;;;6.80;99.90;;;;;;5031844;28;20028;-91
2020/12/08 10:49:26;;;;;;;0.10;0.10;;;6.90;99.90;;;;;;5032370;28;20031;-91
2020/12/08 10:51:52;;;;;;;0.25;0.25;;;7.00;99.90;;;;;;5033110;28;20082;-91
2020/12/08 10:54:18;;;;;;;0.20;0.20;;;7.00;99.90;;;;;;5032024;28;20029;-91
2020/12/08 10:56:44;;;;;;;0.23;0.23;;;7.00;99.90;;;;;;5044847;28;20039;-91
2020/12/08 10:59:09;;;;;;;6.13;0.88;;;7.00;99.90;;;;;;5032146;28;20036;-91
2020/12/08 11:01:35;;;;;;;0.10;0.10;;;6.90;99.90;;;;;;5039108;28;20024;-91
2020/12/08 11:04:02;;;;;;;0.10;0.10;;;6.90;99.90;;;;;;5039234;28;20029;-91
2020/12/08 11:06:29;;;;;;;0.17;0.17;;;6.70;99.90;;;;;;5032039;28;20025;-91
2020/12/08 11:08:55;;;;;;;0.10;0.10;;;6.70;99.90;;;;;;5032429;28;20040;-91
2020/12/08 11:11:32;;;;;;;0.30;0.30;;;6.90;99.90;;;;;;5031278;28;20099;-91
2020/12/08 11:13:59;;;;;;;0.10;0.10;;;6.80;99.90;;;;;;5032107;28;20044;-91
2020/12/08 11:16:26;;;;;;;0.10;0.10;;;6.90;99.90;;;;;;5031903;28;20045;-91
2020/12/08 11:18:52;;;;;;;;;;;6.80;99.90;;;;;;5055937;28;20576;-91
2020/12/08 11:21:28;;;;;;;0.10;0.10;;;6.70;99.90;;;;;;5069861;28;20007;-91
2020/12/08 11:23:55;;;;;;;0.10;0.10;;;6.60;99.90;;;;;;5026135;28;20070;-91
2020/12/08 11:26:22;;;;;;;0.10;0.10;;;6.60;99.90;;;;;;5044314;28;20036;-91
2020/12/08 11:28:48;;;;;;;0.20;0.20;;;6.70;99.90;;;;;;5047410;28;20474;-91
2020/12/08 11:31:14;;;;;;;0.10;0.10;;;6.60;99.90;;;;;;5031502;28;20051;-91
2020/12/08 11:33:40;;;;;;;0.15;0.15;;;6.70;99.90;;;;;;5032443;28;20603;-91
2020/12/08 11:36:07;;;;;;;0.10;0.10;;;6.50;99.90;;;;;;5044025;28;20054;-91
2020/12/08 11:38:33;;;;;;;0.55;0.55;;;6.60;99.90;;;;;;5044944;28;20029;-91
2020/12/08 11:40:59;;;;;;;0.10;0.10;;;6.50;99.90;;;;;;5062409;28;20096;-91
2020/12/08 11:43:25;;;;;;;0.00;0.00;;;6.50;99.90;;;;;;5048870;28;20123;-91
2020/12/08 11:45:50;;;;;;;0.28;0.28;;;6.60;99.90;;;;;;5030462;28;20513;-90
2020/12/08 11:48:16;;;;;;;0.10;0.10;;;6.40;99.90;;;;;;5026811;28;20559;-91
2020/12/08 11:50:42;;;;;;;0.10;0.10;;;6.50;99.90;;;;;;5031662;28;20037;-91
2020/12/08 11:53:09;;;;;;;0.32;0.28;;;6.50;99.90;;;;;;5030965;28;20024;-92
2020/12/08 11:55:34;;;;;;;0.52;0.52;;;6.40;99.90;;;;;;5031546;28;20029;-91
2020/12/08 11:58:00;;;;;;;0.20;0.20;;;6.30;99.90;;;;;;5068182;28;20049;-90
2020/12/08 12:00:26;;;;;;;0.10;0.10;;;6.20;99.90;;;;;;5038858;28;20478;-90
2020/12/08 12:02:53;;;;;;;0.10;0.10;;;6.30;99.90;;;;;;5030923;28;20490;-88
2020/12/08 12:05:19;;;;;;;0.10;0.10;;;6.30;99.90;;;;;;5030588;28;20086;-90
2020/12/08 12:07:44;;;;;;;0.00;0.00;;;6.30;99.90;;;;;;5062870;28;20037;-90
2020/12/08 12:10:10;;;;;;;0.10;0.10;;;6.20;99.90;;;;;;5038550;28;20802;-90
2020/12/08 12:12:36;;;;;;;0.22;0.22;;;6.10;99.90;;;;;;5035930;28;20108;-91
2020/12/08 12:15:02;;;;;;;0.20;0.20;;;6.20;99.90;;;;;;5044727;28;20064;-89
2020/12/08 12:17:28;;;;;;;0.15;0.15;;;6.10;99.90;;;;;;5037722;28;20047;-90
2020/12/08 12:19:54;;;;;;;0.20;0.20;;;6.20;99.90;;;;;;5037270;28;20033;-89
2020/12/08 12:22:20;;;;;;;0.55;0.55;;;6.20;99.90;;;;;;5048317;28;20021;-90
2020/12/08 12:24:47;;;;;;;0.22;0.22;;;6.20;99.90;;;;;;5042070;28;20119;-90
2020/12/08 12:27:12;;;;;;;0.10;0.10;;;6.10;99.90;;;;;;5032600;28;20136;-90
2020/12/08 12:29:38;;;;;;;0.20;0.20;;;6.20;99.90;;;;;;5048495;28;20500;-90
2020/12/08 12:32:04;;;;;;;0.10;0.10;;;6.20;99.90;;;;;;5048133;28;20563;-90
2020/12/08 12:34:30;;;;;;;0.10;0.10;;;6.20;99.90;;;;;;5048266;28;20687;-90
2020/12/08 12:36:57;;;;;;;0.13;0.13;;;6.20;99.90;;;;;;5030522;28;20032;-90
2020/12/08 12:39:22;;;;;;;;;;;6.30;99.90;;;;;;5037086;28;20039;-90
2020/12/08 12:41:48;;;;;;;0.07;0.07;;;6.30;99.90;;;;;;5048634;28;19949;-90
2020/12/08 12:44:14;;;;;;;0.10;0.10;;;6.50;99.90;;;;;;5032127;28;20021;-90
2020/12/08 12:46:39;;;;;;;0.10;0.10;;;6.60;99.90;;;;;;5047627;28;20032;-90
2020/12/08 12:49:05;;;;;;;0.10;0.10;;;6.70;99.90;;;;;;5062333;28;20024;-90
2020/12/08 12:51:31;;;;;;;0.20;0.20;;;6.80;99.90;;;;;;5030161;28;20025;-90
2020/12/08 12:53:58;;;;;;;0.10;0.10;;;7.10;99.90;;;;;;5030396;28;20029;-89
2020/12/08 12:56:25;;;;;;;0.25;0.25;;;7.10;99.90;;;;;;5053836;28;20020;-90